sensor_id;sensor_type;location;lat;lon;timestamp;temperature;humidity
20829;DHT22;10575;50.124;8.582;2023-06-19T00:01:59;24.80;73.40
20829;DHT22;10575;50.124;8.582;2023-06-19T00:04:24;24.60;75.40
20829;DHT22;10575;50.124;8.582;2023-06-19T00:06:52;24.60;78.00
20829;DHT22;10575;50.124;8.582;2023-06-19T00:09:18;24.50;81.00
20829;DHT22;10575;50.124;8.582;2023-06-19T00:11:43;24.40;85.40
20829;DHT22;10575;50.124;8.582;2023-06-19T00:14:09;24.30;89.90
20829;DHT22;10575;50.124;8.582;2023-06-19T00:16:34;24.20;91.80
20829;DHT22;10575;50.124;8.582;2023-06-19T00:19:00;24.10;93.20
20829;DHT22;10575;50.124;8.582;2023-06-19T00:21:28;24.10;94.50
20829;DHT22;10575;50.124;8.582;2023-06-19T00:23:54;24.00;95.50
20829;DHT22;10575;50.124;8.582;2023-06-19T00:26:20;23.90;96.00
20829;DHT22;10575;50.124;8.582;2023-06-19T00:28:51;23.80;96.70
20829;DHT22;10575;50.124;8.582;2023-06-19T00:31:16;23.80;97.30
20829;DHT22;10575;50.124;8.582;2023-06-19T00:33:44;23.90;97.90
20829;DHT22;10575;50.124;8.582;2023-06-19T00:36:11;23.90;98.20
20829;DHT22;10575;50.124;8.582;2023-06-19T00:38:40;24.00;98.70
20829;DHT22;10575;50.124;8.582;2023-06-19T00:41:06;24.00;99.20
20829;DHT22;10575;50.124;8.582;2023-06-19T00:43:33;24.10;99.10
20829;DHT22;10575;50.124;8.582;2023-06-19T00:45:59;24.10;99.50
20829;DHT22;10575;50.124;8.582;2023-06-19T00:48:26;24.10;99.90
20829;DHT22;10575;50.124;8.582;2023-06-19T00:50:52;24.10;99.90
20829;DHT22;10575;50.124;8.582;2023-06-19T00:53:19;24.10;99.90
20829;DHT22;10575;50.124;8.582;2023-06-19T00:55:46;23.90;99.90
20829;DHT22;10575;50.124;8.582;2023-06-19T00:58:12;23.70;99.90
20829;DHT22;10575;50.124;8.582;2023-06-19T01:00:38;23.70;99.90
20829;DHT22;10575;50.124;8.582;2023-06-19T01:03:04;23.60;99.90
20829;DHT22;10575;50.124;8.582;2023-06-19T01:05:30;23.60;99.90
20829;DHT22;10575;50.124;8.582;2023-06-19T01:07:59;23.50;99.90
20829;DHT22;10575;50.124;8.582;2023-06-19T01:10:28;23.50;99.90
20829;DHT22;10575;50.124;8.582;2023-06-19T01:13:10;23.50;99.90
20829;DHT22;10575;50.124;8.582;2023-06-19T01:15:38;23.50;99.90
20829;DHT22;10575;50.124;8.582;2023-06-19T01:18:06;23.50;99.90
20829;DHT22;10575;50.124;8.582;2023-06-19T01:20:31;23.60;99.90
20829;DHT22;10575;50.124;8.582;2023-06-19T01:23:08;23.70;99.90
20829;DHT22;10575;50.124;8.582;2023-06-19T01:25:34;23.60;99.90
20829;DHT22;10575;50.124;8.582;2023-06-19T01:28:01;23.50;99.90
20829;DHT22;10575;50.124;8.582;2023-06-19T01:30:27;23.60;99.90
20829;DHT22;10575;50.124;8.582;2023-06-19T01:33:07;23.70;99.90
20829;DHT22;10575;50.124;8.582;2023-06-19T01:35:36;23.70;99.90
20829;DHT22;10575;50.124;8.582;2023-06-19T01:38:02;23.70;99.90
20829;DHT22;10575;50.124;8.582;2023-06-19T01:40:29;23.60;99.90
20829;DHT22;10575;50.124;8.582;2023-06-19T01:42:58;23.50;99.90
20829;DHT22;10575;50.124;8.582;2023-06-19T01:45:27;23.50;99.90
20829;DHT22;10575;50.124;8.582;2023-06-19T01:47:53;23.50;99.90
20829;DHT22;10575;50.124;8.582;2023-06-19T01:50:21;23.70;99.90
20829;DHT22;10575;50.124;8.582;2023-06-19T01:52:46;23.80;99.90
20829;DHT22;10575;50.124;8.582;2023-06-19T01:55:12;23.80;99.90
20829;DHT22;10575;50.124;8.582;2023-06-19T01:57:38;24.00;99.90
20829;DHT22;10575;50.124;8.582;2023-06-19T02:00:04;24.00;99.90
20829;DHT22;10575;50.124;8.582;2023-06-19T02:02:34;24.20;99.90
20829;DHT22;10575;50.124;8.582;2023-06-19T02:04:59;24.30;99.90
20829;DHT22;10575;50.124;8.582;2023-06-19T02:07:25;24.30;99.90
20829;DHT22;10575;50.124;8.582;2023-06-19T02:09:51;24.10;99.90
20829;DHT22;10575;50.124;8.582;2023-06-19T02:12:16;24.00;99.90
20829;DHT22;10575;50.124;8.582;2023-06-19T02:14:43;24.00;99.90
20829;DHT22;10575;50.124;8.582;2023-06-19T02:17:08;23.90;99.90
20829;DHT22;10575;50.124;8.582;2023-06-19T02:19:34;23.90;99.90
20829;DHT22;10575;50.124;8.582;2023-06-19T02:21:59;23.90;99.90
20829;DHT22;10575;50.124;8.582;2023-06-19T02:24:25;24.00;99.90
20829;DHT22;10575;50.124;8.582;2023-06-19T02:26:51;23.90;99.90
20829;DHT22;10575;50.124;8.582;2023-06-19T02:29:16;23.80;99.90
20829;DHT22;10575;50.124;8.582;2023-06-19T02:31:42;23.80;99.90
20829;DHT22;10575;50.124;8.582;2023-06-19T02:34:08;23.90;99.90
20829;DHT22;10575;50.124;8.582;2023-06-19T02:36:34;23.70;99.90
20829;DHT22;10575;50.124;8.582;2023-06-19T02:39:03;23.50;99.90
20829;DHT22;10575;50.124;8.582;2023-06-19T02:41:29;23.30;99.90
20829;DHT22;10575;50.124;8.582;2023-06-19T02:43:54;23.30;99.90
20829;DHT22;10575;50.124;8.582;2023-06-19T02:46:20;23.20;99.90
20829;DHT22;10575;50.124;8.582;2023-06-19T02:48:45;23.20;99.90
20829;DHT22;10575;50.124;8.582;2023-06-19T02:51:11;23.20;99.90
20829;DHT22;10575;50.124;8.582;2023-06-19T02:53:36;23.10;99.90
20829;DHT22;10575;50.124;8.582;2023-06-19T02:56:02;23.00;99.90
20829;DHT22;10575;50.124;8.582;2023-06-19T02:58:28;23.10;99.90
20829;DHT22;10575;50.124;8.582;2023-06-19T03:00:53;23.20;99.90
20829;DHT22;10575;50.124;8.582;2023-06-19T03:03:19;23.20;99.90
20829;DHT22;10575;50.124;8.582;2023-06-19T03:05:44;23.20;99.90
20829;DHT22;10575;50.124;8.582;2023-06-19T03:08:10;23.10;99.90
20829;DHT22;10575;50.124;8.582;2023-06-19T03:10:36;23.10;99.90
20829;DHT22;10575;50.124;8.582;2023-06-19T03:13:01;23.10;99.90
20829;DHT22;10575;50.124;8.582;2023-06-19T03:15:27;22.90;99.90
20829;DHT22;10575;50.124;8.582;2023-06-19T03:17:53;22.90;99.90
20829;DHT22;10575;50.124;8.582;2023-06-19T03:20:18;23.00;99.90
20829;DHT22;10575;50.124;8.582;2023-06-19T03:22:44;22.90;99.90
20829;DHT22;10575;50.124;8.582;2023-06-19T03:25:09;22.90;99.90
20829;DHT22;10575;50.124;8.582;2023-06-19T03:27:35;23.00;99.90
20829;DHT22;10575;50.124;8.582;2023-06-19T03:30:02;23.00;99.90
20829;DHT22;10575;50.124;8.582;2023-06-19T03:32:32;23.10;99.90
20829;DHT22;10575;50.124;8.582;2023-06-19T03:34:57;23.20;99.90
20829;DHT22;10575;50.124;8.582;2023-06-19T03:37:23;23.30;99.90
20829;DHT22;10575;50.124;8.582;2023-06-19T03:39:48;23.40;99.90
20829;DHT22;10575;50.124;8.582;2023-06-19T03:42:14;23.50;99.90
20829;DHT22;10575;50.124;8.582;2023-06-19T03:44:39;23.40;99.90
20829;DHT22;10575;50.124;8.582;2023-06-19T03:47:06;23.50;99.90
20829;DHT22;10575;50.124;8.582;2023-06-19T03:49:31;23.60;99.90
20829;DHT22;10575;50.124;8.582;2023-06-19T03:51:57;23.60;99.90
20829;DHT22;10575;50.124;8.582;2023-06-19T03:54:22;23.70;99.90
20829;DHT22;10575;50.124;8.582;2023-06-19T03:56:48;23.80;99.90
20829;DHT22;10575;50.124;8.582;2023-06-19T03:59:13;24.00;99.90
20829;DHT22;10575;50.124;8.582;2023-06-19T04:01:39;24.00;99.90
20829;DHT22;10575;50.124;8.582;2023-06-19T04:04:05;24.00;99.90
20829;DHT22;10575;50.124;8.582;2023-06-19T04:06:31;24.10;99.90
20829;DHT22;10575;50.124;8.582;2023-06-19T04:08:56;24.20;99.90
20829;DHT22;10575;50.124;8.582;2023-06-19T04:11:22;24.30;99.90
20829;DHT22;10575;50.124;8.582;2023-06-19T04:13:48;24.30;99.90
20829;DHT22;10575;50.124;8.582;2023-06-19T04:16:13;24.30;99.90
20829;DHT22;10575;50.124;8.582;2023-06-19T04:18:39;24.30;99.90
20829;DHT22;10575;50.124;8.582;2023-06-19T04:21:04;24.30;99.90
20829;DHT22;10575;50.124;8.582;2023-06-19T04:23:30;24.20;99.90
20829;DHT22;10575;50.124;8.582;2023-06-19T04:25:55;24.10;99.90
20829;DHT22;10575;50.124;8.582;2023-06-19T04:28:21;24.00;99.90
20829;DHT22;10575;50.124;8.582;2023-06-19T04:30:46;23.90;99.90
20829;DHT22;10575;50.124;8.582;2023-06-19T04:33:12;23.80;99.90
20829;DHT22;10575;50.124;8.582;2023-06-19T04:35:37;23.80;99.90
20829;DHT22;10575;50.124;8.582;2023-06-19T04:38:06;23.80;99.90
20829;DHT22;10575;50.124;8.582;2023-06-19T04:40:31;23.80;99.90
20829;DHT22;10575;50.124;8.582;2023-06-19T04:42:57;23.80;99.90
20829;DHT22;10575;50.124;8.582;2023-06-19T04:45:23;23.90;99.90
20829;DHT22;10575;50.124;8.582;2023-06-19T04:47:48;24.00;99.90
20829;DHT22;10575;50.124;8.582;2023-06-19T04:50:14;24.00;99.90
20829;DHT22;10575;50.124;8.582;2023-06-19T04:52:41;24.20;99.90
20829;DHT22;10575;50.124;8.582;2023-06-19T04:55:07;24.40;99.90
20829;DHT22;10575;50.124;8.582;2023-06-19T04:57:35;24.60;99.90
20829;DHT22;10575;50.124;8.582;2023-06-19T05:00:02;24.80;99.90
20829;DHT22;10575;50.124;8.582;2023-06-19T05:02:28;25.00;99.90
20829;DHT22;10575;50.124;8.582;2023-06-19T05:04:53;25.10;99.90
20829;DHT22;10575;50.124;8.582;2023-06-19T05:07:19;25.30;99.90
20829;DHT22;10575;50.124;8.582;2023-06-19T05:09:44;25.30;99.90
20829;DHT22;10575;50.124;8.582;2023-06-19T05:12:11;25.40;99.90
20829;DHT22;10575;50.124;8.582;2023-06-19T05:14:36;25.40;99.90
20829;DHT22;10575;50.124;8.582;2023-06-19T05:17:02;25.40;99.90
20829;DHT22;10575;50.124;8.582;2023-06-19T05:19:27;25.60;99.90
20829;DHT22;10575;50.124;8.582;2023-06-19T05:21:53;25.70;99.90
20829;DHT22;10575;50.124;8.582;2023-06-19T05:24:18;25.80;99.90
20829;DHT22;10575;50.124;8.582;2023-06-19T05:26:44;25.90;99.90
20829;DHT22;10575;50.124;8.582;2023-06-19T05:29:09;26.00;99.90
20829;DHT22;10575;50.124;8.582;2023-06-19T05:31:36;26.00;99.90
20829;DHT22;10575;50.124;8.582;2023-06-19T05:34:01;26.00;99.90
20829;DHT22;10575;50.124;8.582;2023-06-19T05:36:27;26.10;99.90
20829;DHT22;10575;50.124;8.582;2023-06-19T05:38:52;26.10;99.90
20829;DHT22;10575;50.124;8.582;2023-06-19T05:41:18;26.20;99.90
20829;DHT22;10575;50.124;8.582;2023-06-19T05:43:43;26.30;99.90
20829;DHT22;10575;50.124;8.582;2023-06-19T05:46:09;26.30;99.90
20829;DHT22;10575;50.124;8.582;2023-06-19T05:48:34;26.50;99.90
20829;DHT22;10575;50.124;8.582;2023-06-19T05:51:00;26.80;99.90
20829;DHT22;10575;50.124;8.582;2023-06-19T05:53:25;27.40;99.90
20829;DHT22;10575;50.124;8.582;2023-06-19T05:55:51;28.20;99.90
20829;DHT22;10575;50.124;8.582;2023-06-19T05:58:16;29.00;99.90
20829;DHT22;10575;50.124;8.582;2023-06-19T06:00:45;29.30;99.90
20829;DHT22;10575;50.124;8.582;2023-06-19T06:03:11;29.80;99.90
20829;DHT22;10575;50.124;8.582;2023-06-19T06:05:36;30.00;98.70
20829;DHT22;10575;50.124;8.582;2023-06-19T06:08:02;30.40;98.90
20829;DHT22;10575;50.124;8.582;2023-06-19T06:10:27;30.80;96.80
20829;DHT22;10575;50.124;8.582;2023-06-19T06:12:53;31.30;94.40
20829;DHT22;10575;50.124;8.582;2023-06-19T06:15:18;31.50;94.30
20829;DHT22;10575;50.124;8.582;2023-06-19T06:17:44;32.10;92.50
20829;DHT22;10575;50.124;8.582;2023-06-19T06:20:09;32.70;91.20
20829;DHT22;10575;50.124;8.582;2023-06-19T06:22:38;33.10;86.50
20829;DHT22;10575;50.124;8.582;2023-06-19T06:25:04;34.20;84.10
20829;DHT22;10575;50.124;8.582;2023-06-19T06:27:29;34.60;79.60
20829;DHT22;10575;50.124;8.582;2023-06-19T06:29:55;34.90;74.60
20829;DHT22;10575;50.124;8.582;2023-06-19T06:32:21;34.40;76.20
20829;DHT22;10575;50.124;8.582;2023-06-19T06:34:46;35.10;73.40
20829;DHT22;10575;50.124;8.582;2023-06-19T06:37:13;35.10;72.60
20829;DHT22;10575;50.124;8.582;2023-06-19T06:39:38;35.20;69.60
20829;DHT22;10575;50.124;8.582;2023-06-19T06:42:04;34.20;72.70
20829;DHT22;10575;50.124;8.582;2023-06-19T06:44:29;33.90;73.40
20829;DHT22;10575;50.124;8.582;2023-06-19T06:46:55;33.60;73.70
20829;DHT22;10575;50.124;8.582;2023-06-19T06:49:21;34.00;74.60
20829;DHT22;10575;50.124;8.582;2023-06-19T06:51:47;35.20;71.20
20829;DHT22;10575;50.124;8.582;2023-06-19T06:54:13;36.60;65.90
20829;DHT22;10575;50.124;8.582;2023-06-19T06:56:38;37.80;61.70
20829;DHT22;10575;50.124;8.582;2023-06-19T06:59:04;39.50;56.80
20829;DHT22;10575;50.124;8.582;2023-06-19T07:01:29;39.80;55.80
20829;DHT22;10575;50.124;8.582;2023-06-19T07:03:55;41.50;52.00
20829;DHT22;10575;50.124;8.582;2023-06-19T07:06:20;42.70;47.70
20829;DHT22;10575;50.124;8.582;2023-06-19T07:08:46;43.20;45.30
20829;DHT22;10575;50.124;8.582;2023-06-19T07:11:13;43.80;43.90
20829;DHT22;10575;50.124;8.582;2023-06-19T07:13:38;42.90;43.60
20829;DHT22;10575;50.124;8.582;2023-06-19T07:16:05;42.00;44.60
20829;DHT22;10575;50.124;8.582;2023-06-19T07:18:30;41.80;45.50
20829;DHT22;10575;50.124;8.582;2023-06-19T07:20:56;42.60;43.50
20829;DHT22;10575;50.124;8.582;2023-06-19T07:23:22;43.20;43.10
20829;DHT22;10575;50.124;8.582;2023-06-19T07:25:47;43.50;41.40
20829;DHT22;10575;50.124;8.582;2023-06-19T07:28:13;42.50;42.50
20829;DHT22;10575;50.124;8.582;2023-06-19T07:30:40;40.40;45.30
20829;DHT22;10575;50.124;8.582;2023-06-19T07:33:05;39.20;47.70
20829;DHT22;10575;50.124;8.582;2023-06-19T07:35:31;39.00;48.10
20829;DHT22;10575;50.124;8.582;2023-06-19T07:37:56;39.60;47.60
20829;DHT22;10575;50.124;8.582;2023-06-19T07:40:22;40.30;46.60
20829;DHT22;10575;50.124;8.582;2023-06-19T07:42:47;40.60;45.60
20829;DHT22;10575;50.124;8.582;2023-06-19T07:45:13;40.10;46.00
20829;DHT22;10575;50.124;8.582;2023-06-19T07:47:39;40.00;46.70
20829;DHT22;10575;50.124;8.582;2023-06-19T07:50:05;40.30;45.60
20829;DHT22;10575;50.124;8.582;2023-06-19T07:52:30;40.30;45.80
20829;DHT22;10575;50.124;8.582;2023-06-19T07:54:57;40.60;45.20
20829;DHT22;10575;50.124;8.582;2023-06-19T07:57:24;41.30;45.20
20829;DHT22;10575;50.124;8.582;2023-06-19T07:59:51;40.90;45.00
20829;DHT22;10575;50.124;8.582;2023-06-19T08:02:17;40.70;45.30
20829;DHT22;10575;50.124;8.582;2023-06-19T08:04:43;40.20;46.20
20829;DHT22;10575;50.124;8.582;2023-06-19T08:07:09;39.80;46.30
20829;DHT22;10575;50.124;8.582;2023-06-19T08:09:34;39.80;46.80
20829;DHT22;10575;50.124;8.582;2023-06-19T08:12:01;38.40;48.70
20829;DHT22;10575;50.124;8.582;2023-06-19T08:14:26;37.40;50.30
20829;DHT22;10575;50.124;8.582;2023-06-19T08:16:52;38.60;48.10
20829;DHT22;10575;50.124;8.582;2023-06-19T08:19:17;39.20;46.90
20829;DHT22;10575;50.124;8.582;2023-06-19T08:21:43;38.90;47.40
20829;DHT22;10575;50.124;8.582;2023-06-19T08:24:08;38.20;48.10
20829;DHT22;10575;50.124;8.582;2023-06-19T08:26:34;38.00;49.70
20829;DHT22;10575;50.124;8.582;2023-06-19T08:28:59;40.60;46.90
20829;DHT22;10575;50.124;8.582;2023-06-19T08:31:24;44.10;41.60
20829;DHT22;10575;50.124;8.582;2023-06-19T08:33:56;46.10;39.30
20829;DHT22;10575;50.124;8.582;2023-06-19T08:36:22;46.80;37.90
20829;DHT22;10575;50.124;8.582;2023-06-19T08:38:48;47.90;35.90
20829;DHT22;10575;50.124;8.582;2023-06-19T08:41:18;49.80;33.10
20829;DHT22;10575;50.124;8.582;2023-06-19T08:43:47;51.10;31.40
20829;DHT22;10575;50.124;8.582;2023-06-19T08:46:17;48.20;33.70
20829;DHT22;10575;50.124;8.582;2023-06-19T08:48:43;49.10;32.20
20829;DHT22;10575;50.124;8.582;2023-06-19T08:51:10;51.30;30.10
20829;DHT22;10575;50.124;8.582;2023-06-19T08:53:44;53.00;28.30
20829;DHT22;10575;50.124;8.582;2023-06-19T08:56:10;52.20;29.00
20829;DHT22;10575;50.124;8.582;2023-06-19T08:58:36;50.70;29.00
20829;DHT22;10575;50.124;8.582;2023-06-19T09:01:02;49.70;30.00
20829;DHT22;10575;50.124;8.582;2023-06-19T09:03:28;49.20;31.40
20829;DHT22;10575;50.124;8.582;2023-06-19T09:05:53;50.50;29.50
20829;DHT22;10575;50.124;8.582;2023-06-19T09:08:20;51.70;27.90
20829;DHT22;10575;50.124;8.582;2023-06-19T09:10:57;52.00;28.50
20829;DHT22;10575;50.124;8.582;2023-06-19T09:13:22;51.20;28.90
20829;DHT22;10575;50.124;8.582;2023-06-19T09:15:56;51.60;28.30
20829;DHT22;10575;50.124;8.582;2023-06-19T09:18:22;51.10;28.70
20829;DHT22;10575;50.124;8.582;2023-06-19T09:20:48;50.30;29.00
20829;DHT22;10575;50.124;8.582;2023-06-19T09:23:17;50.40;29.40
20829;DHT22;10575;50.124;8.582;2023-06-19T09:25:47;50.00;29.80
20829;DHT22;10575;50.124;8.582;2023-06-19T09:28:20;50.30;29.00
20829;DHT22;10575;50.124;8.582;2023-06-19T09:31:02;49.30;28.70
20829;DHT22;10575;50.124;8.582;2023-06-19T09:33:34;46.40;32.10
20829;DHT22;10575;50.124;8.582;2023-06-19T09:36:01;43.90;34.20
20829;DHT22;10575;50.124;8.582;2023-06-19T09:38:30;41.60;37.50
20829;DHT22;10575;50.124;8.582;2023-06-19T09:40:57;39.90;41.20
20829;DHT22;10575;50.124;8.582;2023-06-19T09:43:37;38.60;41.70
20829;DHT22;10575;50.124;8.582;2023-06-19T09:46:05;37.20;45.30
20829;DHT22;10575;50.124;8.582;2023-06-19T09:48:32;36.70;46.60
20829;DHT22;10575;50.124;8.582;2023-06-19T09:51:09;36.20;47.50
20829;DHT22;10575;50.124;8.582;2023-06-19T09:53:36;36.00;47.50
20829;DHT22;10575;50.124;8.582;2023-06-19T09:56:01;35.60;48.80
20829;DHT22;10575;50.124;8.582;2023-06-19T09:58:27;35.30;50.30
20829;DHT22;10575;50.124;8.582;2023-06-19T10:00:54;35.20;49.70
20829;DHT22;10575;50.124;8.582;2023-06-19T10:03:20;34.70;50.10
20829;DHT22;10575;50.124;8.582;2023-06-19T10:05:46;34.50;52.00
20829;DHT22;10575;50.124;8.582;2023-06-19T10:08:11;34.30;52.10
20829;DHT22;10575;50.124;8.582;2023-06-19T10:10:46;34.40;52.90
20829;DHT22;10575;50.124;8.582;2023-06-19T10:13:16;34.50;52.00
20829;DHT22;10575;50.124;8.582;2023-06-19T10:15:43;34.50;51.30
20829;DHT22;10575;50.124;8.582;2023-06-19T10:18:13;34.30;51.80
20829;DHT22;10575;50.124;8.582;2023-06-19T10:20:39;33.90;54.00
20829;DHT22;10575;50.124;8.582;2023-06-19T10:23:15;33.90;54.90
20829;DHT22;10575;50.124;8.582;2023-06-19T10:25:44;34.20;54.50
20829;DHT22;10575;50.124;8.582;2023-06-19T10:28:36;34.30;53.20
20829;DHT22;10575;50.124;8.582;2023-06-19T10:31:06;34.50;53.30
20829;DHT22;10575;50.124;8.582;2023-06-19T10:33:34;34.50;53.00
20829;DHT22;10575;50.124;8.582;2023-06-19T10:36:01;34.50;53.20
20829;DHT22;10575;50.124;8.582;2023-06-19T10:38:27;34.40;52.50
20829;DHT22;10575;50.124;8.582;2023-06-19T10:40:53;34.30;52.80
20829;DHT22;10575;50.124;8.582;2023-06-19T10:43:23;34.10;53.00
20829;DHT22;10575;50.124;8.582;2023-06-19T10:45:51;34.10;53.60
20829;DHT22;10575;50.124;8.582;2023-06-19T10:48:21;34.20;52.90
20829;DHT22;10575;50.124;8.582;2023-06-19T10:50:48;34.00;52.70
20829;DHT22;10575;50.124;8.582;2023-06-19T10:53:27;33.90;53.50
20829;DHT22;10575;50.124;8.582;2023-06-19T10:56:01;33.80;54.70
20829;DHT22;10575;50.124;8.582;2023-06-19T10:58:28;33.90;54.70
20829;DHT22;10575;50.124;8.582;2023-06-19T11:00:55;33.90;54.50
20829;DHT22;10575;50.124;8.582;2023-06-19T11:03:27;34.10;53.00
20829;DHT22;10575;50.124;8.582;2023-06-19T11:05:52;34.00;53.70
20829;DHT22;10575;50.124;8.582;2023-06-19T11:08:22;33.90;53.50
20829;DHT22;10575;50.124;8.582;2023-06-19T11:10:48;33.60;53.60
20829;DHT22;10575;50.124;8.582;2023-06-19T11:13:15;33.20;54.10
20829;DHT22;10575;50.124;8.582;2023-06-19T11:15:41;33.20;54.90
20829;DHT22;10575;50.124;8.582;2023-06-19T11:18:07;33.20;56.10
20829;DHT22;10575;50.124;8.582;2023-06-19T11:20:44;33.10;54.50
20829;DHT22;10575;50.124;8.582;2023-06-19T11:23:10;32.80;56.30
20829;DHT22;10575;50.124;8.582;2023-06-19T11:25:37;32.50;57.50
20829;DHT22;10575;50.124;8.582;2023-06-19T11:28:13;32.70;57.10
20829;DHT22;10575;50.124;8.582;2023-06-19T11:30:40;32.90;55.80
20829;DHT22;10575;50.124;8.582;2023-06-19T11:33:18;33.10;55.20
20829;DHT22;10575;50.124;8.582;2023-06-19T11:35:54;33.30;55.30
20829;DHT22;10575;50.124;8.582;2023-06-19T11:38:24;33.40;55.70
20829;DHT22;10575;50.124;8.582;2023-06-19T11:40:51;33.50;54.20
20829;DHT22;10575;50.124;8.582;2023-06-19T11:43:28;33.50;54.20
20829;DHT22;10575;50.124;8.582;2023-06-19T11:46:01;33.40;53.20
20829;DHT22;10575;50.124;8.582;2023-06-19T11:48:27;33.30;53.70
20829;DHT22;10575;50.124;8.582;2023-06-19T11:50:53;33.20;54.50
20829;DHT22;10575;50.124;8.582;2023-06-19T11:53:21;33.30;53.80
20829;DHT22;10575;50.124;8.582;2023-06-19T11:55:46;33.40;54.40
20829;DHT22;10575;50.124;8.582;2023-06-19T11:58:12;33.50;53.70
20829;DHT22;10575;50.124;8.582;2023-06-19T12:00:38;33.70;55.20
20829;DHT22;10575;50.124;8.582;2023-06-19T12:03:04;33.80;54.00
20829;DHT22;10575;50.124;8.582;2023-06-19T12:05:30;33.90;54.80
20829;DHT22;10575;50.124;8.582;2023-06-19T12:07:55;33.90;54.60
20829;DHT22;10575;50.124;8.582;2023-06-19T12:10:21;34.00;55.00
20829;DHT22;10575;50.124;8.582;2023-06-19T12:12:47;33.80;55.10
20829;DHT22;10575;50.124;8.582;2023-06-19T12:15:12;33.50;56.10
20829;DHT22;10575;50.124;8.582;2023-06-19T12:17:38;33.30;55.50
20829;DHT22;10575;50.124;8.582;2023-06-19T12:20:04;33.40;55.90
20829;DHT22;10575;50.124;8.582;2023-06-19T12:22:32;33.50;54.60
20829;DHT22;10575;50.124;8.582;2023-06-19T12:24:58;33.50;56.80
20829;DHT22;10575;50.124;8.582;2023-06-19T12:27:23;33.40;55.10
20829;DHT22;10575;50.124;8.582;2023-06-19T12:29:49;33.00;56.50
20829;DHT22;10575;50.124;8.582;2023-06-19T12:32:14;33.10;53.00
20829;DHT22;10575;50.124;8.582;2023-06-19T12:34:40;33.10;55.40
20829;DHT22;10575;50.124;8.582;2023-06-19T12:37:05;33.20;55.60
20829;DHT22;10575;50.124;8.582;2023-06-19T12:39:32;33.10;56.70
20829;DHT22;10575;50.124;8.582;2023-06-19T12:41:58;33.10;55.40
20829;DHT22;10575;50.124;8.582;2023-06-19T12:44:23;33.00;53.90
20829;DHT22;10575;50.124;8.582;2023-06-19T12:46:50;32.90;56.20
20829;DHT22;10575;50.124;8.582;2023-06-19T12:49:15;32.90;54.80
20829;DHT22;10575;50.124;8.582;2023-06-19T12:51:41;32.80;56.20
20829;DHT22;10575;50.124;8.582;2023-06-19T12:54:06;32.80;56.20
20829;DHT22;10575;50.124;8.582;2023-06-19T12:56:32;32.80;55.00
20829;DHT22;10575;50.124;8.582;2023-06-19T12:58:57;32.70;54.90
20829;DHT22;10575;50.124;8.582;2023-06-19T13:01:23;32.70;55.10
20829;DHT22;10575;50.124;8.582;2023-06-19T13:03:48;32.40;55.50
20829;DHT22;10575;50.124;8.582;2023-06-19T13:06:14;32.20;56.90
20829;DHT22;10575;50.124;8.582;2023-06-19T13:08:39;32.20;57.70
20829;DHT22;10575;50.124;8.582;2023-06-19T13:11:05;32.20;58.50
20829;DHT22;10575;50.124;8.582;2023-06-19T13:13:30;32.50;57.30
20829;DHT22;10575;50.124;8.582;2023-06-19T13:15:56;32.80;55.80
20829;DHT22;10575;50.124;8.582;2023-06-19T13:18:21;32.90;56.10
20829;DHT22;10575;50.124;8.582;2023-06-19T13:20:47;32.90;55.20
20829;DHT22;10575;50.124;8.582;2023-06-19T13:23:13;32.90;56.10
20829;DHT22;10575;50.124;8.582;2023-06-19T13:25:39;32.90;55.90
20829;DHT22;10575;50.124;8.582;2023-06-19T13:28:05;32.90;55.30
20829;DHT22;10575;50.124;8.582;2023-06-19T13:30:33;32.80;55.80
20829;DHT22;10575;50.124;8.582;2023-06-19T13:32:59;32.90;57.10
20829;DHT22;10575;50.124;8.582;2023-06-19T13:35:24;33.00;56.10
20829;DHT22;10575;50.124;8.582;2023-06-19T13:37:50;33.00;56.90
20829;DHT22;10575;50.124;8.582;2023-06-19T13:40:15;32.90;57.30
20829;DHT22;10575;50.124;8.582;2023-06-19T13:42:41;32.80;57.70
20829;DHT22;10575;50.124;8.582;2023-06-19T13:45:07;33.00;55.20
20829;DHT22;10575;50.124;8.582;2023-06-19T13:47:32;33.10;54.90
20829;DHT22;10575;50.124;8.582;2023-06-19T13:49:58;33.00;54.00
20829;DHT22;10575;50.124;8.582;2023-06-19T13:52:23;32.80;54.60
20829;DHT22;10575;50.124;8.582;2023-06-19T13:54:49;32.70;53.90
20829;DHT22;10575;50.124;8.582;2023-06-19T13:57:14;32.60;53.70
20829;DHT22;10575;50.124;8.582;2023-06-19T13:59:40;32.50;53.60
20829;DHT22;10575;50.124;8.582;2023-06-19T14:02:06;32.50;54.30
20829;DHT22;10575;50.124;8.582;2023-06-19T14:04:32;32.60;55.50
20829;DHT22;10575;50.124;8.582;2023-06-19T14:06:57;32.60;55.00
20829;DHT22;10575;50.124;8.582;2023-06-19T14:09:23;32.70;55.40
20829;DHT22;10575;50.124;8.582;2023-06-19T14:11:48;32.60;53.80
20829;DHT22;10575;50.124;8.582;2023-06-19T14:14:14;32.70;53.20
20829;DHT22;10575;50.124;8.582;2023-06-19T14:16:39;32.50;52.80
20829;DHT22;10575;50.124;8.582;2023-06-19T14:19:05;32.50;54.70
20829;DHT22;10575;50.124;8.582;2023-06-19T14:21:30;32.60;55.50
20829;DHT22;10575;50.124;8.582;2023-06-19T14:23:56;32.70;53.60
20829;DHT22;10575;50.124;8.582;2023-06-19T14:26:21;32.60;53.50
20829;DHT22;10575;50.124;8.582;2023-06-19T14:28:47;32.60;52.20
20829;DHT22;10575;50.124;8.582;2023-06-19T14:31:14;32.50;52.70
20829;DHT22;10575;50.124;8.582;2023-06-19T14:33:39;32.30;55.00
20829;DHT22;10575;50.124;8.582;2023-06-19T14:36:05;32.00;54.90
20829;DHT22;10575;50.124;8.582;2023-06-19T14:38:31;32.10;54.80
20829;DHT22;10575;50.124;8.582;2023-06-19T14:41:00;32.00;55.10
20829;DHT22;10575;50.124;8.582;2023-06-19T14:43:26;32.10;54.30
20829;DHT22;10575;50.124;8.582;2023-06-19T14:45:51;32.10;53.80
20829;DHT22;10575;50.124;8.582;2023-06-19T14:48:17;32.00;52.10
20829;DHT22;10575;50.124;8.582;2023-06-19T14:50:43;32.00;52.40
20829;DHT22;10575;50.124;8.582;2023-06-19T14:53:08;32.00;52.20
20829;DHT22;10575;50.124;8.582;2023-06-19T14:55:34;32.10;52.10
20829;DHT22;10575;50.124;8.582;2023-06-19T14:58:00;31.80;51.50
20829;DHT22;10575;50.124;8.582;2023-06-19T15:00:25;32.00;52.40
20829;DHT22;10575;50.124;8.582;2023-06-19T15:02:51;32.10;52.50
20829;DHT22;10575;50.124;8.582;2023-06-19T15:05:16;32.00;51.80
20829;DHT22;10575;50.124;8.582;2023-06-19T15:07:42;32.10;52.50
20829;DHT22;10575;50.124;8.582;2023-06-19T15:10:07;32.30;53.00
20829;DHT22;10575;50.124;8.582;2023-06-19T15:12:33;32.40;51.10
20829;DHT22;10575;50.124;8.582;2023-06-19T15:15:00;32.50;53.20
20829;DHT22;10575;50.124;8.582;2023-06-19T15:17:25;32.40;53.20
20829;DHT22;10575;50.124;8.582;2023-06-19T15:19:51;32.30;53.60
20829;DHT22;10575;50.124;8.582;2023-06-19T15:22:17;32.30;51.80
20829;DHT22;10575;50.124;8.582;2023-06-19T15:24:42;32.50;51.90
20829;DHT22;10575;50.124;8.582;2023-06-19T15:27:08;32.50;52.40